Melbourne/Lavert, Australia

7:24 PM AEDT on February 22, 2017 (GMT +1100)
Point Cook, Victoria, Australia | | Change Station

Elev 46 ft 37.88 °S, 144.75 °E | Updated 15 seconds ago

Clear
Clear
94.3 °F
Feels Like 90 °F
N
8.3
Wind Variable Wind from North
Gusts 9.8 mph

Today
High -- | Low -- °F
--% Chance of Precip.
Yesterday
High -- | Low -- °F
Precip. -- in
Pressure 29.77 in
Visibility -9999.0 miles
Clouds
Heat Index 90 °F
Dew Point 41 °F
Humidity 16%
Rainfall 0.00 in
Snow Depth Not available.
6:57 AM 8:10 PM
Waning Crescent, 19% visible
SPECI YMML 220803Z 01019G29KT CAVOK 32/M03 Q1008 FM0803 MOD TURB BLW 5000FT
Pressure 29.77 in
Visibility -9999.0 miles
Clouds
Heat Index 90 °F
Dew Point 41 °F
Humidity 16%
Rainfall 0.00 in
Snow Depth Not available.
6:57 AM 8:10 PM
Waning Crescent, 19% visible
SPECI YMML 220803Z 01019G29KT CAVOK 32/M03 Q1008 FM0803 MOD TURB BLW 5000FT

Get Your Daily Forecast Email!

Thanks for signing up!

Be on the lookout for a verification email in your inbox.

You'll start receiving the daily forecast at 8 AM.

×

10-Day Weather Forecast

×

Almanac

Astronomy

Feb. 22, 2017 Rise Set
Actual Time
Civil Twilight
Nautical Twilight
Astronomical Twilight
Moon
Length of Visible Light
Length of Day
Tomorrow will be .
, % of the Moon is Illuminated

Today's Extremes

Country Highs Country Lows

Community

WunderPhotos

Upload Photos

1,962,540 photos uploaded!

WunderBlog® & News

Nearby

Air Quality

  Air Quality AQ Index Pollutant
Not available.

Snow Depth

Station Depth Elevation

Earthquake Activity

City Distance Mag. Time & Date
Minimum magnitude displayed is 2.5.

Coastal Water Temperatures

Place Temperature

Stations

Nearby Weather Stations

Station Location Temp. Windchill Dew Point Humidity Wind Precip. Elev Updated Type